Time;durP1;ratioP1;P1;durP2;ratioP2;P2;SDS_P1;SDS_P2;PMS_P1;PMS_P2;Temp;Humidity;BMP_temperature;BMP_pressure;BME280_temperature;BME280_humidity;BME280_pressure;Samples;Min_cycle;Max_cycle;Signal;HPM_P1;HPM_P2
2023/07/28 00:02:11;;;;;;;15.17;13.67;;;;;;;;;;5054639;28;20188;-83
2023/07/28 00:04:37;;;;;;;14.77;13.37;;;;;;;;;;5054969;28;20187;-83
2023/07/28 00:07:04;;;;;;;14.70;13.30;;;;;;;;;;5054621;28;20262;-83
2023/07/28 00:09:30;;;;;;;14.90;13.40;;;;;;;;;;5054783;28;20184;-83
2023/07/28 00:12:00;;;;;;;15.00;13.50;;;;;;;;;;5054554;28;20212;-83
2023/07/28 00:14:27;;;;;;;15.10;13.70;;;;;;;;;;5054075;28;20238;-83
2023/07/28 00:16:57;;;;;;;14.73;13.23;;;;;;;;;;5054404;28;20190;-83
2023/07/28 00:19:23;;;;;;;16.17;14.53;;;;;;;;;;5054062;28;20176;-83
2023/07/28 00:21:49;;;;;;;14.43;13.03;;;;;;;;;;5053906;28;20187;-83
2023/07/28 00:24:15;;;;;;;14.97;13.37;;;;;;;;;;5054438;28;20272;-83
2023/07/28 00:26:42;;;;;;;14.47;13.00;;;;;;;;;;5054270;28;20222;-83
2023/07/28 00:29:10;;;;;;;17.40;14.70;;;;;;;;;;5054104;28;20204;-83
2023/07/28 00:31:36;;;;;;;16.67;14.23;;;;;;;;;;5054089;28;20239;-83
2023/07/28 00:34:03;;;;;;;16.00;14.47;;;;;;;;;;5054259;28;20183;-83
2023/07/28 00:36:29;;;;;;;16.97;15.13;;;;;;;;;;5054192;28;20239;-83
2023/07/28 00:38:55;;;;;;;17.17;14.63;;;;;;;;;;5053920;28;20180;-82
2023/07/28 00:41:21;;;;;;;15.97;14.17;;;;;;;;;;5054137;28;20178;-83
2023/07/28 00:43:47;;;;;;;17.13;14.90;;;;;;;;;;5037327;28;20237;-82
2023/07/28 00:46:13;;;;;;;15.43;13.63;;;;;;;;;;5037493;28;20187;-83
2023/07/28 00:48:40;;;;;;;18.83;14.63;;;;;;;;;;5037771;28;20190;-83
2023/07/28 00:51:06;;;;;;;14.37;12.97;;;;;;;;;;5037683;28;20247;-83
2023/07/28 00:53:33;;;;;;;15.87;13.70;;;;;;;;;;5037585;28;20187;-83
2023/07/28 00:55:59;;;;;;;16.50;13.80;;;;;;;;;;5053730;28;20217;-83
2023/07/28 00:58:25;;;;;;;15.60;13.90;;;;;;;;;;5053477;28;20298;-83
2023/07/28 01:00:51;;;;;;;14.67;13.17;;;;;;;;;;5053780;28;20179;-83
2023/07/28 01:03:19;;;;;;;15.07;13.40;;;;;;;;;;5036964;28;20187;-83
2023/07/28 01:05:45;;;;;;;15.67;14.17;;;;;;;;;;5053496;28;20183;-83
2023/07/28 01:08:30;;;;;;;15.77;14.03;;;;;;;;;;5053646;28;20199;-83
2023/07/28 01:10:59;;;;;;;16.07;13.57;;;;;;;;;;5053107;28;20203;-82
2023/07/28 01:13:25;;;;;;;15.67;13.40;;;;;;;;;;5053423;28;20223;-83
2023/07/28 01:15:51;;;;;;;15.47;13.83;;;;;;;;;;5036780;28;20274;-83
2023/07/28 01:18:17;;;;;;;17.10;14.37;;;;;;;;;;5053392;28;20214;-83
2023/07/28 01:20:45;;;;;;;16.70;14.80;;;;;;;;;;5036661;28;20182;-83
2023/07/28 01:23:14;;;;;;;18.57;14.50;;;;;;;;;;5053135;28;20176;-83
2023/07/28 01:25:59;;;;;;;18.43;14.50;;;;;;;;;;5053145;28;20241;-83
2023/07/28 01:28:25;;;;;;;19.43;15.30;;;;;;;;;;5053064;28;20235;-83
2023/07/28 01:30:52;;;;;;;17.00;15.23;;;;;;;;;;5052747;28;20219;-83
2023/07/28 01:33:18;;;;;;;16.10;14.43;;;;;;;;;;5036445;28;20172;-82
2023/07/28 01:35:44;;;;;;;17.90;15.63;;;;;;;;;;5052797;28;20180;-83
2023/07/28 01:38:10;;;;;;;19.37;15.07;;;;;;;;;;5052614;28;20186;-83
2023/07/28 01:40:38;;;;;;;17.93;16.03;;;;;;;;;;5053044;28;20179;-83
2023/07/28 01:43:04;;;;;;;19.43;15.93;;;;;;;;;;5036834;28;20278;-82
2023/07/28 01:45:30;;;;;;;18.67;15.53;;;;;;;;;;5052702;28;20191;-83
2023/07/28 01:47:56;;;;;;;20.00;16.13;;;;;;;;;;5052987;28;20198;-83
2023/07/28 01:50:22;;;;;;;20.83;16.50;;;;;;;;;;5052633;28;20237;-83
2023/07/28 01:52:48;;;;;;;18.90;16.90;;;;;;;;;;5053204;28;20241;-83
2023/07/28 01:55:14;;;;;;;17.93;16.03;;;;;;;;;;5036079;28;20199;-83
2023/07/28 01:57:40;;;;;;;18.47;15.53;;;;;;;;;;5036150;28;20192;-83
2023/07/28 02:00:07;;;;;;;20.87;16.60;;;;;;;;;;5052642;28;20183;-83
2023/07/28 02:02:33;;;;;;;20.97;16.53;;;;;;;;;;5036366;28;20180;-82
2023/07/28 02:04:59;;;;;;;20.23;16.20;;;;;;;;;;5052494;28;20198;-83
2023/07/28 02:07:25;;;;;;;21.17;16.40;;;;;;;;;;5036076;28;20275;-83
2023/07/28 02:09:52;;;;;;;19.70;16.17;;;;;;;;;;5036282;28;20176;-83
2023/07/28 02:12:18;;;;;;;18.43;14.90;;;;;;;;;;5035806;28;20300;-83
2023/07/28 02:14:44;;;;;;;19.77;15.60;;;;;;;;;;5035677;28;20262;-83
2023/07/28 02:17:10;;;;;;;22.10;16.30;;;;;;;;;;5036109;28;20234;-82
2023/07/28 02:19:36;;;;;;;22.17;15.50;;;;;;;;;;5052385;28;20178;-83
2023/07/28 02:22:04;;;;;;;23.70;16.67;;;;;;;;;;5035988;28;20180;-83
2023/07/28 02:24:30;;;;;;;21.43;16.43;;;;;;;;;;5035990;28;20194;-82
2023/07/28 02:26:56;;;;;;;21.37;17.07;;;;;;;;;;5035789;28;20188;-83
2023/07/28 02:29:22;;;;;;;24.13;16.80;;;;;;;;;;5035978;28;20188;-82
2023/07/28 02:31:48;;;;;;;23.37;17.83;;;;;;;;;;5035865;28;20208;-81
2023/07/28 02:34:14;;;;;;;22.93;17.53;;;;;;;;;;5035605;28;20194;-81
2023/07/28 02:36:40;;;;;;;24.87;18.27;;;;;;;;;;5052772;28;20184;-82
2023/07/28 02:39:06;;;;;;;24.40;18.23;;;;;;;;;;5035753;28;20176;-82
2023/07/28 02:41:35;;;;;;;24.67;18.53;;;;;;;;;;5035987;28;20188;-82
2023/07/28 02:44:01;;;;;;;27.90;19.97;;;;;;;;;;5054320;28;20211;-81
2023/07/28 02:46:27;;;;;;;29.60;19.27;;;;;;;;;;5039497;28;20261;-82
2023/07/28 02:48:53;;;;;;;29.50;20.33;;;;;;;;;;5039584;28;20187;-82
2023/07/28 02:51:19;;;;;;;32.50;20.77;;;;;;;;;;5056133;28;20341;-82
2023/07/28 02:53:45;;;;;;;28.83;19.63;;;;;;;;;;5056002;28;20297;-82
2023/07/28 02:56:11;;;;;;;29.10;20.13;;;;;;;;;;5039277;28;20184;-82
2023/07/28 02:58:37;;;;;;;29.43;20.83;;;;;;;;;;5055918;28;20172;-82
2023/07/28 03:01:06;;;;;;;32.47;20.40;;;;;;;;;;5039382;28;20191;-82
2023/07/28 03:03:32;;;;;;;29.10;19.63;;;;;;;;;;5055690;28;20191;-81
2023/07/28 03:05:58;;;;;;;34.53;20.93;;;;;;;;;;5039548;28;20188;-81
2023/07/28 03:08:24;;;;;;;35.70;21.80;;;;;;;;;;5039246;28;20184;-82
2023/07/28 03:10:50;;;;;;;31.90;20.23;;;;;;;;;;5055672;28;20257;-81
2023/07/28 03:13:16;;;;;;;32.87;20.43;;;;;;;;;;5039065;28;20270;-82
2023/07/28 03:15:42;;;;;;;29.67;19.60;;;;;;;;;;5055448;28;20263;-82
2023/07/28 03:18:08;;;;;;;36.57;22.37;;;;;;;;;;5038894;28;20188;-82
2023/07/28 03:20:35;;;;;;;34.30;21.40;;;;;;;;;;5055681;28;20206;-82
2023/07/28 03:23:01;;;;;;;36.20;21.50;;;;;;;;;;5038790;28;20247;-82
2023/07/28 03:25:27;;;;;;;35.37;22.33;;;;;;;;;;5038951;28;20219;-81
2023/07/28 03:27:53;;;;;;;31.67;20.97;;;;;;;;;;5055475;28;20207;-81
2023/07/28 03:30:19;;;;;;;34.43;22.23;;;;;;;;;;5038663;28;20275;-82
2023/07/28 03:32:45;;;;;;;36.20;23.23;;;;;;;;;;5038665;28;20272;-81
2023/07/28 03:35:11;;;;;;;35.93;22.70;;;;;;;;;;5038490;28;20235;-81
2023/07/28 03:37:37;;;;;;;36.33;23.23;;;;;;;;;;5038793;28;20184;-82
2023/07/28 03:40:03;;;;;;;36.97;23.70;;;;;;;;;;5054977;28;20172;-82
2023/07/28 03:42:32;;;;;;;39.70;23.20;;;;;;;;;;5054949;28;20183;-82
2023/07/28 03:44:58;;;;;;;41.50;23.80;;;;;;;;;;5055101;28;20257;-82
2023/07/28 03:47:24;;;;;;;42.07;24.13;;;;;;;;;;5054836;28;20267;-82
2023/07/28 03:49:50;;;;;;;46.83;24.63;;;;;;;;;;5055051;28;20183;-81
2023/07/28 03:52:16;;;;;;;43.90;24.43;;;;;;;;;;5054746;28;20214;-82
2023/07/28 03:54:42;;;;;;;44.80;24.03;;;;;;;;;;5038030;28;20176;-81
2023/07/28 03:57:09;;;;;;;42.33;24.47;;;;;;;;;;5038095;28;20180;-82
2023/07/28 03:59:38;;;;;;;44.50;25.67;;;;;;;;;;5054658;28;20179;-81
2023/07/28 04:02:04;;;;;;;48.20;25.43;;;;;;;;;;5054896;28;20183;-81
2023/07/28 04:04:30;;;;;;;47.73;25.73;;;;;;;;;;5054809;28;20187;-81
2023/07/28 04:06:56;;;;;;;45.23;24.67;;;;;;;;;;5054672;28;20184;-81
2023/07/28 04:09:25;;;;;;;44.77;25.93;;;;;;;;;;5038174;28;20183;-82
2023/07/28 04:11:51;;;;;;;45.90;26.10;;;;;;;;;;5054349;28;20212;-82
2023/07/28 04:14:17;;;;;;;53.37;27.40;;;;;;;;;;5054108;28;20176;-82
2023/07/28 04:16:43;;;;;;;54.07;26.70;;;;;;;;;;5037920;28;20188;-82
2023/07/28 04:19:09;;;;;;;59.33;28.60;;;;;;;;;;5037919;28;20176;-82
2023/07/28 04:21:35;;;;;;;49.70;26.57;;;;;;;;;;5037935;28;20208;-82
2023/07/28 04:24:01;;;;;;;53.33;28.80;;;;;;;;;;5054231;28;20255;-81
2023/07/28 04:26:27;;;;;;;53.53;27.33;;;;;;;;;;5054492;28;20266;-81
2023/07/28 04:28:56;;;;;;;60.77;27.30;;;;;;;;;;5054150;28;20207;-81
2023/07/28 04:31:22;;;;;;;61.07;27.03;;;;;;;;;;5054066;28;20204;-81
2023/07/28 04:33:48;;;;;;;50.07;26.57;;;;;;;;;;5054027;28;20182;-82
2023/07/28 04:36:14;;;;;;;58.00;29.00;;;;;;;;;;5037562;28;20374;-81
2023/07/28 04:38:40;;;;;;;55.13;26.60;;;;;;;;;;5054023;28;20206;-81
2023/07/28 04:41:06;;;;;;;58.30;27.83;;;;;;;;;;5037674;28;20214;-81
2023/07/28 04:43:32;;;;;;;59.83;28.30;;;;;;;;;;5053902;28;20233;-81
2023/07/28 04:45:58;;;;;;;61.40;29.33;;;;;;;;;;5053663;28;20188;-82
2023/07/28 04:48:24;;;;;;;58.47;27.57;;;;;;;;;;5037285;28;20184;-82
2023/07/28 04:50:50;;;;;;;53.27;28.20;;;;;;;;;;5053901;28;20261;-82
2023/07/28 04:53:16;;;;;;;57.37;28.27;;;;;;;;;;5053586;28;20176;-81
2023/07/28 04:55:42;;;;;;;57.87;28.37;;;;;;;;;;5053801;28;20176;-81
2023/07/28 04:58:11;;;;;;;55.17;27.87;;;;;;;;;;5037051;28;20176;-81
2023/07/28 05:00:37;;;;;;;58.60;27.40;;;;;;;;;;5053909;28;20180;-81
2023/07/28 05:03:03;;;;;;;60.13;28.47;;;;;;;;;;5037005;28;20184;-81
2023/07/28 05:05:34;;;;;;;63.67;28.30;;;;;;;;;;5036702;28;20188;-81
2023/07/28 05:08:00;;;;;;;63.50;27.57;;;;;;;;;;5053020;28;20183;-81
2023/07/28 05:10:26;;;;;;;59.43;29.17;;;;;;;;;;5036652;28;20216;-82
2023/07/28 05:12:55;;;;;;;61.93;29.20;;;;;;;;;;5053559;28;20172;-81
2023/07/28 05:15:23;;;;;;;55.57;28.73;;;;;;;;;;5053187;28;20285;-82
2023/07/28 05:17:49;;;;;;;62.10;30.40;;;;;;;;;;5053386;28;20184;-82
2023/07/28 05:20:16;;;;;;;55.77;29.30;;;;;;;;;;5036774;28;20314;-81
2023/07/28 05:22:42;;;;;;;59.20;29.60;;;;;;;;;;5053149;28;20203;-81
2023/07/28 05:25:08;;;;;;;71.20;31.50;;;;;;;;;;5053041;28;20228;-82
2023/07/28 05:27:34;;;;;;;65.13;31.10;;;;;;;;;;5052998;28;20274;-82
2023/07/28 05:30:03;;;;;;;66.37;31.63;;;;;;;;;;5052893;28;20180;-81
2023/07/28 05:32:29;;;;;;;71.90;31.10;;;;;;;;;;5052952;28;20208;-81
2023/07/28 05:34:55;;;;;;;63.17;30.37;;;;;;;;;;5052980;28;20172;-82
2023/07/28 05:37:21;;;;;;;72.13;31.67;;;;;;;;;;5036547;28;20186;-82
2023/07/28 05:39:47;;;;;;;65.40;32.10;;;;;;;;;;5052775;28;20176;-82
2023/07/28 05:42:13;;;;;;;72.03;33.37;;;;;;;;;;5036587;28;20187;-81
2023/07/28 05:44:39;;;;;;;63.13;33.00;;;;;;;;;;5036541;28;20184;-82
2023/07/28 05:47:06;;;;;;;79.57;33.77;;;;;;;;;;5036305;28;20198;-82
2023/07/28 05:49:32;;;;;;;72.63;33.10;;;;;;;;;;5036359;28;20183;-82
2023/07/28 05:51:58;;;;;;;65.87;32.73;;;;;;;;;;5036094;28;20216;-82
2023/07/28 05:54:24;;;;;;;68.77;32.63;;;;;;;;;;5052731;28;20183;-82
2023/07/28 05:56:50;;;;;;;80.50;33.77;;;;;;;;;;5052534;28;20176;-82
2023/07/28 05:59:18;;;;;;;62.63;31.70;;;;;;;;;;5052660;28;20180;-82
2023/07/28 06:01:45;;;;;;;66.07;32.17;;;;;;;;;;5052574;28;20180;-82
2023/07/28 06:04:11;;;;;;;63.83;30.80;;;;;;;;;;5052666;28;20172;-82
2023/07/28 06:06:37;;;;;;;62.53;30.77;;;;;;;;;;5035965;28;20251;-82
2023/07/28 06:09:03;;;;;;;56.87;29.47;;;;;;;;;;5036060;28;20180;-82
2023/07/28 06:11:29;;;;;;;56.93;28.43;;;;;;;;;;5052626;28;20208;-82
2023/07/28 06:13:55;;;;;;;61.63;28.97;;;;;;;;;;5052524;28;20176;-81
2023/07/28 06:16:21;;;;;;;47.03;26.80;;;;;;;;;;5035903;28;20242;-82
2023/07/28 06:18:47;;;;;;;55.40;27.83;;;;;;;;;;5037577;28;20218;-82
2023/07/28 06:21:13;;;;;;;56.63;26.80;;;;;;;;;;5056444;28;20180;-82
2023/07/28 06:23:40;;;;;;;47.40;26.33;;;;;;;;;;5040415;28;20222;-82
2023/07/28 06:26:06;;;;;;;47.70;25.47;;;;;;;;;;5039799;28;20179;-82
2023/07/28 06:28:32;;;;;;;49.33;26.67;;;;;;;;;;5040040;28;20216;-82
2023/07/28 06:30:58;;;;;;;41.60;25.33;;;;;;;;;;5039832;28;20219;-82
2023/07/28 06:33:25;;;;;;;45.47;26.77;;;;;;;;;;5056360;28;20172;-82
2023/07/28 06:35:52;;;;;;;47.67;25.40;;;;;;;;;;5056038;28;20184;-82
2023/07/28 06:38:20;;;;;;;46.50;26.10;;;;;;;;;;5040053;28;20183;-82
2023/07/28 06:40:46;;;;;;;48.57;25.77;;;;;;;;;;5056138;28;20180;-82
2023/07/28 06:43:12;;;;;;;40.00;24.63;;;;;;;;;;5056339;28;20241;-82
2023/07/28 06:45:38;;;;;;;43.50;25.57;;;;;;;;;;5056107;28;20184;-82
2023/07/28 06:48:05;;;;;;;47.57;26.13;;;;;;;;;;5039504;28;20179;-82
2023/07/28 06:50:32;;;;;;;42.77;24.10;;;;;;;;;;5055964;28;20207;-82
2023/07/28 06:52:58;;;;;;;41.73;24.20;;;;;;;;;;5039665;28;20176;-82
2023/07/28 06:55:24;;;;;;;42.20;25.73;;;;;;;;;;5056003;28;20180;-82
2023/07/28 06:57:52;;;;;;;45.10;26.37;;;;;;;;;;5039327;28;20188;-82
2023/07/28 07:00:18;;;;;;;48.10;26.20;;;;;;;;;;5055674;28;20221;-81
2023/07/28 07:02:45;;;;;;;53.20;28.37;;;;;;;;;;5055744;28;20180;-82
2023/07/28 07:05:13;;;;;;;50.87;29.07;;;;;;;;;;5039169;28;20184;-82
2023/07/28 07:07:39;;;;;;;59.47;31.20;;;;;;;;;;5039636;28;20180;-82
2023/07/28 07:10:06;;;;;;;61.80;31.47;;;;;;;;;;5055742;28;20180;-82
2023/07/28 07:12:32;;;;;;;53.13;31.10;;;;;;;;;;5039436;28;20208;-82
2023/07/28 07:14:58;;;;;;;52.57;29.60;;;;;;;;;;5055571;28;20227;-82
2023/07/28 07:17:24;;;;;;;52.73;29.57;;;;;;;;;;5039053;28;20184;-82
2023/07/28 07:19:50;;;;;;;53.43;30.83;;;;;;;;;;5038798;28;20180;-82
2023/07/28 07:22:16;;;;;;;48.63;28.37;;;;;;;;;;5039219;28;20183;-82
2023/07/28 07:24:43;;;;;;;55.63;30.23;;;;;;;;;;5040014;28;20187;-83
2023/07/28 07:27:10;;;;;;;50.07;29.00;;;;;;;;;;5055313;28;20184;-83
2023/07/28 07:29:37;;;;;;;47.97;28.30;;;;;;;;;;5055174;28;20192;-83
2023/07/28 07:32:04;;;;;;;47.57;28.77;;;;;;;;;;5038650;28;20307;-83
2023/07/28 07:34:30;;;;;;;44.97;27.40;;;;;;;;;;5039038;28;20180;-83
2023/07/28 07:36:57;;;;;;;46.83;28.10;;;;;;;;;;5038789;28;20286;-83
2023/07/28 07:39:23;;;;;;;41.67;26.80;;;;;;;;;;5055205;28;20183;-83
2023/07/28 07:41:49;;;;;;;35.47;23.07;;;;;;;;;;5055209;28;20234;-83
2023/07/28 07:44:15;;;;;;;37.13;23.17;;;;;;;;;;5038437;28;20196;-83
2023/07/28 07:46:41;;;;;;;30.60;21.60;;;;;;;;;;5038337;28;20179;-83
2023/07/28 07:49:07;;;;;;;29.37;20.97;;;;;;;;;;5038372;28;20218;-83
2023/07/28 07:51:34;;;;;;;31.67;20.33;;;;;;;;;;5038586;28;20211;-83
2023/07/28 07:54:01;;;;;;;31.23;21.13;;;;;;;;;;5038253;28;20180;-82
2023/07/28 07:56:27;;;;;;;29.40;20.23;;;;;;;;;;5054910;28;20254;-83
2023/07/28 07:58:53;;;;;;;28.00;19.63;;;;;;;;;;5038199;28;20180;-83
2023/07/28 08:01:19;;;;;;;29.70;19.07;;;;;;;;;;5054773;28;20191;-83
2023/07/28 08:03:45;;;;;;;27.70;18.47;;;;;;;;;;5054646;28;20184;-83
2023/07/28 08:06:12;;;;;;;29.60;20.10;;;;;;;;;;5054985;28;20183;-83
2023/07/28 08:08:38;;;;;;;24.10;18.53;;;;;;;;;;5038378;28;20271;-83
2023/07/28 08:11:04;;;;;;;29.60;18.73;;;;;;;;;;5054622;28;20219;-82
2023/07/28 08:13:33;;;;;;;27.10;19.73;;;;;;;;;;5054671;28;20184;-83
2023/07/28 08:15:59;;;;;;;34.30;19.37;;;;;;;;;;5054192;28;20259;-83
2023/07/28 08:18:25;;;;;;;26.10;19.30;;;;;;;;;;5038289;28;20206;-83
2023/07/28 08:20:51;;;;;;;28.03;19.27;;;;;;;;;;5038589;28;20191;-82
2023/07/28 08:23:17;;;;;;;27.13;18.37;;;;;;;;;;5037699;28;20192;-82
2023/07/28 08:25:43;;;;;;;27.17;18.43;;;;;;;;;;5054254;28;20262;-82
2023/07/28 08:28:09;;;;;;;28.10;18.20;;;;;;;;;;5037655;28;20200;-82
2023/07/28 08:30:35;;;;;;;24.73;18.57;;;;;;;;;;5037567;28;20208;-82
2023/07/28 08:33:02;;;;;;;27.30;17.87;;;;;;;;;;5037579;28;20188;-82
2023/07/28 08:35:28;;;;;;;25.57;17.70;;;;;;;;;;5037785;28;20180;-83
2023/07/28 08:37:54;;;;;;;21.30;17.73;;;;;;;;;;5054400;28;20267;-83
2023/07/28 08:40:20;;;;;;;22.20;18.00;;;;;;;;;;5037423;28;20176;-82
2023/07/28 08:42:46;;;;;;;23.23;17.70;;;;;;;;;;5036896;28;20183;-82
2023/07/28 08:45:13;;;;;;;20.87;17.40;;;;;;;;;;5037452;28;20321;-82
2023/07/28 08:47:39;;;;;;;21.97;16.60;;;;;;;;;;5053749;28;20230;-82
2023/07/28 08:50:08;;;;;;;20.80;16.97;;;;;;;;;;5054022;28;20175;-82
2023/07/28 08:52:34;;;;;;;22.83;17.83;;;;;;;;;;5053706;28;20217;-83
2023/07/28 08:55:00;;;;;;;22.23;17.20;;;;;;;;;;5037412;28;20191;-82
2023/07/28 08:57:27;;;;;;;26.60;17.37;;;;;;;;;;5037227;28;20200;-82
2023/07/28 08:59:56;;;;;;;21.50;16.30;;;;;;;;;;5053856;28;20239;-82
2023/07/28 09:02:22;;;;;;;19.67;16.07;;;;;;;;;;5053797;28;20180;-82
2023/07/28 09:04:49;;;;;;;20.77;16.13;;;;;;;;;;5036971;28;20255;-83
2023/07/28 09:07:18;;;;;;;16.53;13.73;;;;;;;;;;5053877;28;20190;-83
2023/07/28 09:09:44;;;;;;;15.77;13.43;;;;;;;;;;5053381;28;20180;-83
2023/07/28 09:12:10;;;;;;;17.20;14.20;;;;;;;;;;5053179;28;20199;-83
2023/07/28 09:14:39;;;;;;;16.93;13.83;;;;;;;;;;5037026;28;20195;-83
2023/07/28 09:17:09;;;;;;;17.80;13.83;;;;;;;;;;5054184;28;20176;-83
2023/07/28 09:19:38;;;;;;;15.70;13.13;;;;;;;;;;5053407;28;20176;-83
2023/07/28 09:22:04;;;;;;;18.97;14.40;;;;;;;;;;5053137;28;20183;-83
2023/07/28 09:24:32;;;;;;;17.63;14.80;;;;;;;;;;5053075;28;20245;-83
2023/07/28 09:27:01;;;;;;;16.97;14.90;;;;;;;;;;5052994;28;20187;-83
2023/07/28 09:29:27;;;;;;;20.43;15.50;;;;;;;;;;5053082;28;20179;-83
2023/07/28 09:31:54;;;;;;;18.27;15.10;;;;;;;;;;5053206;28;20207;-83
2023/07/28 09:34:24;;;;;;;18.60;15.83;;;;;;;;;;5053090;28;20176;-83
2023/07/28 09:36:50;;;;;;;19.30;15.57;;;;;;;;;;5053027;28;20258;-83
2023/07/28 09:39:20;;;;;;;19.23;14.50;;;;;;;;;;5036250;28;20249;-83
2023/07/28 09:41:47;;;;;;;21.23;15.03;;;;;;;;;;5052994;28;20184;-83
2023/07/28 09:44:15;;;;;;;18.47;15.70;;;;;;;;;;5053210;28;20176;-83
2023/07/28 09:46:51;;;;;;;19.07;15.17;;;;;;;;;;5037198;28;20195;-83
2023/07/28 09:49:21;;;;;;;19.27;14.90;;;;;;;;;;5052913;28;20270;-83
2023/07/28 09:51:49;;;;;;;18.77;14.90;;;;;;;;;;5052449;28;20207;-83
2023/07/28 09:54:27;;;;;;;17.73;14.33;;;;;;;;;;5052677;28;20244;-83
2023/07/28 09:56:56;;;;;;;18.30;14.80;;;;;;;;;;5052991;28;20175;-83
2023/07/28 09:59:27;;;;;;;16.03;14.27;;;;;;;;;;5052811;28;20203;-84
2023/07/28 10:01:53;;;;;;;16.13;13.27;;;;;;;;;;5052691;28;20205;-83
2023/07/28 10:04:20;;;;;;;15.20;13.37;;;;;;;;;;5036120;28;20187;-83
2023/07/28 10:06:54;;;;;;;14.57;13.07;;;;;;;;;;5052542;28;20183;-83
2023/07/28 10:09:21;;;;;;;15.53;12.77;;;;;;;;;;5052781;28;20183;-83
2023/07/28 10:11:47;;;;;;;13.77;12.10;;;;;;;;;;5052581;28;20211;-84
2023/07/28 10:14:25;;;;;;;13.90;12.50;;;;;;;;;;5052586;28;20180;-84
2023/07/28 10:16:51;;;;;;;13.80;12.30;;;;;;;;;;5052401;28;20300;-83
2023/07/28 10:19:23;;;;;;;14.57;12.50;;;;;;;;;;5052684;28;20221;-83
2023/07/28 10:21:49;;;;;;;12.90;11.68;;;;;;;;;;5052363;28;20206;-83
2023/07/28 10:24:15;;;;;;;12.90;11.52;;;;;;;;;;5052408;28;20179;-83
2023/07/28 10:26:45;;;;;;;13.05;11.75;;;;;;;;;;5052717;28;20179;-84
2023/07/28 10:29:14;;;;;;;13.40;12.00;;;;;;;;;;5052501;28;20255;-84
2023/07/28 10:32:02;;;;;;;11.75;10.63;;;;;;;;;;5052167;28;20207;-84
2023/07/28 10:34:31;;;;;;;12.60;11.02;;;;;;;;;;5052646;28;20172;-83
2023/07/28 10:37:00;;;;;;;11.70;10.48;;;;;;;;;;5052678;28;20204;-84
2023/07/28 10:39:30;;;;;;;12.82;11.45;;;;;;;;;;5052806;28;20176;-85
2023/07/28 10:42:06;;;;;;;13.13;11.82;;;;;;;;;;5052207;28;20302;-84
2023/07/28 10:44:33;;;;;;;12.68;10.85;;;;;;;;;;5052121;28;20184;-84
2023/07/28 10:46:59;;;;;;;13.43;11.95;;;;;;;;;;5052555;28;20183;-84
2023/07/28 10:49:28;;;;;;;14.27;12.88;;;;;;;;;;5052421;28;20176;-84
2023/07/28 10:51:54;;;;;;;14.15;12.68;;;;;;;;;;5052420;28;20204;-84
2023/07/28 10:54:21;;;;;;;14.77;13.20;;;;;;;;;;5052230;28;20262;-85
2023/07/28 10:56:48;;;;;;;13.38;12.07;;;;;;;;;;5052342;28;20187;-84
2023/07/28 10:59:15;;;;;;;12.93;11.65;;;;;;;;;;5052300;28;20179;-84
2023/07/28 11:01:41;;;;;;;12.50;11.25;;;;;;;;;;5052184;28;20276;-84
2023/07/28 11:04:08;;;;;;;12.30;10.95;;;;;;;;;;5053027;28;20186;-83
2023/07/28 11:06:34;;;;;;;12.15;10.95;;;;;;;;;;5055782;28;20176;-84
2023/07/28 11:09:01;;;;;;;11.43;10.27;;;;;;;;;;5055926;28;20237;-84
2023/07/28 11:11:28;;;;;;;12.38;11.13;;;;;;;;;;5040928;28;20208;-83
2023/07/28 11:13:56;;;;;;;12.18;10.98;;;;;;;;;;5040208;28;20180;-84
2023/07/28 11:16:22;;;;;;;11.50;10.32;;;;;;;;;;5056343;28;20224;-84
2023/07/28 11:18:48;;;;;;;12.32;10.23;;;;;;;;;;5039151;28;20176;-84
2023/07/28 11:21:18;;;;;;;12.13;10.70;;;;;;;;;;5055684;28;20183;-84
2023/07/28 11:23:47;;;;;;;12.80;11.55;;;;;;;;;;5058103;28;20176;-83
2023/07/28 11:26:16;;;;;;;13.57;12.20;;;;;;;;;;5057652;28;20176;-84
2023/07/28 11:28:44;;;;;;;12.65;11.43;;;;;;;;;;5055796;28;20191;-84
2023/07/28 11:31:10;;;;;;;13.27;11.98;;;;;;;;;;5055546;28;20249;-84
2023/07/28 11:33:38;;;;;;;12.07;10.98;;;;;;;;;;5055576;28;20198;-84
2023/07/28 11:36:04;;;;;;;11.63;10.43;;;;;;;;;;5055165;28;20203;-84
2023/07/28 11:38:32;;;;;;;12.60;10.05;;;;;;;;;;5055359;28;20240;-84
2023/07/28 11:41:00;;;;;;;10.90;9.77;;;;;;;;;;5055194;28;20204;-83
2023/07/28 11:43:27;;;;;;;12.00;10.85;;;;;;;;;;5055260;28;20180;-83
2023/07/28 11:45:53;;;;;;;12.15;11.05;;;;;;;;;;5055479;28;20180;-83
2023/07/28 11:48:19;;;;;;;13.05;11.40;;;;;;;;;;5054967;28;20202;-84
2023/07/28 11:50:48;;;;;;;12.40;11.20;;;;;;;;;;5055196;28;20216;-84
2023/07/28 11:53:14;;;;;;;11.95;10.75;;;;;;;;;;5055088;28;20168;-84
2023/07/28 11:55:44;;;;;;;11.20;10.10;;;;;;;;;;5055066;28;20180;-84
2023/07/28 11:58:12;;;;;;;11.75;10.55;;;;;;;;;;5055062;28;20221;-84
2023/07/28 12:00:42;;;;;;;12.98;11.52;;;;;;;;;;5054923;28;20176;-83
2023/07/28 12:03:15;;;;;;;11.77;10.65;;;;;;;;;;5055164;28;20176;-84
2023/07/28 12:05:42;;;;;;;12.57;11.27;;;;;;;;;;5054850;28;20168;-84
2023/07/28 12:08:08;;;;;;;11.30;10.10;;;;;;;;;;5054986;28;20184;-83
2023/07/28 12:10:34;;;;;;;10.88;9.77;;;;;;;;;;5054386;28;20176;-84
2023/07/28 12:13:05;;;;;;;11.07;9.98;;;;;;;;;;5054590;28;20179;-84
2023/07/28 12:15:32;;;;;;;10.98;8.70;;;;;;;;;;5054086;28;20216;-84
2023/07/28 12:18:18;;;;;;;10.07;9.10;;;;;;;;;;5054378;28;20180;-84
2023/07/28 12:20:49;;;;;;;10.80;9.52;;;;;;;;;;5054580;28;20199;-84
2023/07/28 12:23:16;;;;;;;9.88;8.90;;;;;;;;;;5054242;28;20218;-84
2023/07/28 12:25:43;;;;;;;11.68;9.38;;;;;;;;;;5054251;28;20207;-84
2023/07/28 12:28:12;;;;;;;11.25;10.15;;;;;;;;;;5054413;28;20210;-83
2023/07/28 12:30:38;;;;;;;12.43;9.80;;;;;;;;;;5054488;28;20199;-84
2023/07/28 12:33:05;;;;;;;10.77;9.77;;;;;;;;;;5054454;28;20179;-83
2023/07/28 12:35:34;;;;;;;9.63;8.63;;;;;;;;;;5054137;28;20188;-83
2023/07/28 12:38:01;;;;;;;10.57;9.63;;;;;;;;;;5054061;28;20234;-86
2023/07/28 12:40:29;;;;;;;10.55;9.10;;;;;;;;;;5037618;28;20180;-86
2023/07/28 12:42:55;;;;;;;10.23;9.23;;;;;;;;;;5054026;28;20236;-86
2023/07/28 12:45:21;;;;;;;10.23;9.18;;;;;;;;;;5053945;28;20168;-86
2023/07/28 12:47:47;;;;;;;9.70;8.70;;;;;;;;;;5054093;28;20271;-86
2023/07/28 12:50:14;;;;;;;10.32;9.32;;;;;;;;;;5054039;28;20166;-87
2023/07/28 12:52:42;;;;;;;10.93;9.82;;;;;;;;;;5053569;28;20200;-87
2023/07/28 12:55:08;;;;;;;11.13;9.60;;;;;;;;;;5053746;28;20258;-86
2023/07/28 12:57:34;;;;;;;10.23;9.27;;;;;;;;;;5053580;28;20176;-87
2023/07/28 13:00:00;;;;;;;11.90;9.43;;;;;;;;;;5054253;28;20183;-86
2023/07/28 13:02:26;;;;;;;10.70;9.60;;;;;;;;;;5054167;28;20179;-87
2023/07/28 13:04:52;;;;;;;11.40;9.48;;;;;;;;;;5053653;28;20176;-86
2023/07/28 13:07:19;;;;;;;9.90;8.65;;;;;;;;;;5053346;28;20194;-87
2023/07/28 13:09:45;;;;;;;10.60;9.20;;;;;;;;;;5053482;28;20202;-87
2023/07/28 13:12:14;;;;;;;12.30;9.80;;;;;;;;;;5053478;28;20203;-86
2023/07/28 13:14:41;;;;;;;9.50;8.60;;;;;;;;;;5053698;28;20261;-87
2023/07/28 13:17:07;;;;;;;9.32;8.43;;;;;;;;;;5036501;28;20254;-86
2023/07/28 13:19:36;;;;;;;10.25;9.30;;;;;;;;;;5053164;28;20187;-87
2023/07/28 13:22:02;;;;;;;9.00;7.63;;;;;;;;;;5036681;28;20180;-86
2023/07/28 13:24:28;;;;;;;8.25;7.38;;;;;;;;;;5053138;28;20183;-87
2023/07/28 13:26:57;;;;;;;11.82;8.45;;;;;;;;;;5053123;28;20172;-86
2023/07/28 13:29:23;;;;;;;7.85;7.03;;;;;;;;;;5053538;28;20176;-86
2023/07/28 13:31:49;;;;;;;8.38;6.97;;;;;;;;;;5053229;28;20204;-86
2023/07/28 13:34:15;;;;;;;7.90;7.10;;;;;;;;;;5052999;28;20194;-86
2023/07/28 13:36:43;;;;;;;8.13;7.43;;;;;;;;;;5053039;28;20172;-86
2023/07/28 13:39:09;;;;;;;8.05;6.95;;;;;;;;;;5052888;28;20172;-86
2023/07/28 13:41:35;;;;;;;8.00;7.18;;;;;;;;;;5036783;28;20190;-86
2023/07/28 13:44:03;;;;;;;7.50;6.72;;;;;;;;;;5052889;28;20176;-86
2023/07/28 13:46:32;;;;;;;8.27;7.10;;;;;;;;;;5053011;28;20239;-86
2023/07/28 13:48:58;;;;;;;6.60;5.70;;;;;;;;;;5036504;28;20274;-87
2023/07/28 13:51:27;;;;;;;8.25;6.22;;;;;;;;;;5052697;28;20208;-86
2023/07/28 13:53:53;;;;;;;6.07;5.47;;;;;;;;;;5052883;28;20172;-86
2023/07/28 13:56:19;;;;;;;6.05;5.43;;;;;;;;;;5052781;28;20175;-86
2023/07/28 13:58:48;;;;;;;6.90;6.00;;;;;;;;;;5052695;28;20175;-85
2023/07/28 14:01:14;;;;;;;6.30;5.78;;;;;;;;;;5052856;28;20179;-86
2023/07/28 14:03:40;;;;;;;5.88;5.38;;;;;;;;;;5052535;28;20180;-86
2023/07/28 14:06:08;;;;;;;5.63;4.65;;;;;;;;;;5052675;28;20179;-86
2023/07/28 14:08:34;;;;;;;5.53;4.82;;;;;;;;;;5052462;28;20176;-86
2023/07/28 14:11:00;;;;;;;6.63;5.40;;;;;;;;;;5052445;28;20235;-86
2023/07/28 14:13:26;;;;;;;5.18;4.68;;;;;;;;;;5052619;28;20176;-86
2023/07/28 14:15:55;;;;;;;5.43;4.35;;;;;;;;;;5037103;28;20216;-86
2023/07/28 14:18:21;;;;;;;5.70;5.20;;;;;;;;;;5052713;28;20175;-86
2023/07/28 14:20:47;;;;;;;6.05;5.45;;;;;;;;;;5052657;28;20168;-86